sensor_id;sensor_type;location;lat;lon;timestamp;pressure;altitude;pressure_sealevel;temperature;humidity
65872;BME280;52653;50.080;21.992;2023-02-19T00:01:30;98644.33;;;5.74;93.74
65872;BME280;52653;50.080;21.992;2023-02-19T00:04:22;98639.09;;;5.71;93.58
65872;BME280;52653;50.080;21.992;2023-02-19T00:07:13;98636.47;;;5.70;94.02
65872;BME280;52653;50.080;21.992;2023-02-19T00:10:04;98645.17;;;5.69;94.22
65872;BME280;52653;50.080;21.992;2023-02-19T00:12:55;98652.83;;;5.67;94.23
65872;BME280;52653;50.080;21.992;2023-02-19T00:15:48;98657.34;;;5.63;93.75
65872;BME280;52653;50.080;21.992;2023-02-19T00:18:40;98663.23;;;5.56;93.11
65872;BME280;52653;50.080;21.992;2023-02-19T00:21:31;98669.48;;;5.50;92.80
65872;BME280;52653;50.080;21.992;2023-02-19T00:24:24;98665.43;;;5.42;92.44
65872;BME280;52653;50.080;21.992;2023-02-19T00:27:15;98664.73;;;5.36;92.52
65872;BME280;52653;50.080;21.992;2023-02-19T00:30:07;98673.20;;;5.31;92.23
65872;BME280;52653;50.080;21.992;2023-02-19T00:32:51;98680.15;;;5.28;92.45
65872;BME280;52653;50.080;21.992;2023-02-19T00:35:41;98686.41;;;5.26;92.78
65872;BME280;52653;50.080;21.992;2023-02-19T00:38:34;98687.77;;;5.21;92.50
65872;BME280;52653;50.080;21.992;2023-02-19T00:41:26;98682.02;;;5.16;92.41
65872;BME280;52653;50.080;21.992;2023-02-19T00:44:10;98685.48;;;5.14;92.58
65872;BME280;52653;50.080;21.992;2023-02-19T00:47:01;98678.34;;;5.10;92.48
65872;BME280;52653;50.080;21.992;2023-02-19T00:49:55;98684.05;;;5.08;92.54
65872;BME280;52653;50.080;21.992;2023-02-19T00:52:46;98683.15;;;5.04;92.63
65872;BME280;52653;50.080;21.992;2023-02-19T00:55:38;98678.61;;;4.99;92.59
65872;BME280;52653;50.080;21.992;2023-02-19T00:58:29;98679.45;;;4.94;92.15
65872;BME280;52653;50.080;21.992;2023-02-19T01:01:20;98674.91;;;4.90;92.13
65872;BME280;52653;50.080;21.992;2023-02-19T01:04:12;98671.41;;;4.86;92.00
65872;BME280;52653;50.080;21.992;2023-02-19T01:07:04;98660.25;;;4.82;91.85
65872;BME280;52653;50.080;21.992;2023-02-19T01:09:57;98675.70;;;4.79;91.83
65872;BME280;52653;50.080;21.992;2023-02-19T01:12:46;98663.88;;;4.76;91.83
65872;BME280;52653;50.080;21.992;2023-02-19T01:15:35;98645.80;;;4.73;92.00
65872;BME280;52653;50.080;21.992;2023-02-19T01:18:29;98640.17;;;4.66;91.69
65872;BME280;52653;50.080;21.992;2023-02-19T01:21:20;98643.27;;;4.59;91.60
65872;BME280;52653;50.080;21.992;2023-02-19T01:24:13;98644.39;;;4.48;91.41
65872;BME280;52653;50.080;21.992;2023-02-19T01:27:05;98639.79;;;4.35;91.52
65872;BME280;52653;50.080;21.992;2023-02-19T01:29:57;98637.47;;;4.27;91.66
65872;BME280;52653;50.080;21.992;2023-02-19T01:32:48;98634.09;;;4.18;91.71
65872;BME280;52653;50.080;21.992;2023-02-19T01:35:40;98636.43;;;4.08;91.74
65872;BME280;52653;50.080;21.992;2023-02-19T01:38:31;98637.21;;;3.97;92.22
65872;BME280;52653;50.080;21.992;2023-02-19T01:41:23;98645.27;;;3.87;92.59
65872;BME280;52653;50.080;21.992;2023-02-19T01:44:07;98647.10;;;3.80;92.74
65872;BME280;52653;50.080;21.992;2023-02-19T01:47:18;98648.23;;;3.71;92.83
65872;BME280;52653;50.080;21.992;2023-02-19T01:50:10;98652.83;;;3.64;93.17
65872;BME280;52653;50.080;21.992;2023-02-19T01:52:54;98652.78;;;3.59;93.60
65872;BME280;52653;50.080;21.992;2023-02-19T01:55:45;98652.73;;;3.55;93.47
65872;BME280;52653;50.080;21.992;2023-02-19T01:58:38;98649.71;;;3.49;93.45
65872;BME280;52653;50.080;21.992;2023-02-19T02:01:29;98650.16;;;3.43;93.67
65872;BME280;52653;50.080;21.992;2023-02-19T02:04:13;98656.17;;;3.38;93.70
65872;BME280;52653;50.080;21.992;2023-02-19T02:07:06;98657.31;;;3.32;93.62
65872;BME280;52653;50.080;21.992;2023-02-19T02:10:18;98658.11;;;3.26;93.78
65872;BME280;52653;50.080;21.992;2023-02-19T02:13:03;98656.14;;;3.20;93.85
65872;BME280;52653;50.080;21.992;2023-02-19T02:15:57;98649.30;;;3.16;93.76
65872;BME280;52653;50.080;21.992;2023-02-19T02:18:47;98647.20;;;3.12;93.99
65872;BME280;52653;50.080;21.992;2023-02-19T02:21:46;98645.27;;;3.10;94.28
65872;BME280;52653;50.080;21.992;2023-02-19T02:27:55;98639.27;;;3.16;95.36
65872;BME280;52653;50.080;21.992;2023-02-19T02:30:49;98632.24;;;3.22;95.43
65872;BME280;52653;50.080;21.992;2023-02-19T02:33:43;98619.30;;;3.28;95.46
65872;BME280;52653;50.080;21.992;2023-02-19T02:36:40;98616.41;;;3.31;95.48
65872;BME280;52653;50.080;21.992;2023-02-19T02:39:33;98623.38;;;3.34;95.23
65872;BME280;52653;50.080;21.992;2023-02-19T02:42:26;98620.65;;;3.39;95.23
65872;BME280;52653;50.080;21.992;2023-02-19T02:45:21;98629.18;;;3.42;95.11
65872;BME280;52653;50.080;21.992;2023-02-19T02:48:27;98623.17;;;3.47;94.89
65872;BME280;52653;50.080;21.992;2023-02-19T02:51:21;98627.02;;;3.51;94.85
65872;BME280;52653;50.080;21.992;2023-02-19T02:54:27;98632.59;;;3.53;94.92
65872;BME280;52653;50.080;21.992;2023-02-19T02:57:41;98643.52;;;3.55;94.68
65872;BME280;52653;50.080;21.992;2023-02-19T03:00:34;98644.79;;;3.58;94.35
65872;BME280;52653;50.080;21.992;2023-02-19T03:03:42;98647.42;;;3.61;94.41
65872;BME280;52653;50.080;21.992;2023-02-19T03:06:34;98647.79;;;3.63;94.49
65872;BME280;52653;50.080;21.992;2023-02-19T03:09:27;98640.01;;;3.66;94.48
65872;BME280;52653;50.080;21.992;2023-02-19T03:12:20;98641.08;;;3.68;94.40
65872;BME280;52653;50.080;21.992;2023-02-19T03:15:31;98641.46;;;3.70;94.43
65872;BME280;52653;50.080;21.992;2023-02-19T03:18:42;98635.40;;;3.72;94.06
65872;BME280;52653;50.080;21.992;2023-02-19T03:21:55;98637.52;;;3.75;94.17
65872;BME280;52653;50.080;21.992;2023-02-19T03:24:49;98639.27;;;3.78;94.00
65872;BME280;52653;50.080;21.992;2023-02-19T03:28:00;98643.64;;;3.81;94.13
65872;BME280;52653;50.080;21.992;2023-02-19T03:30:52;98644.54;;;3.83;94.19
65872;BME280;52653;50.080;21.992;2023-02-19T03:33:46;98652.36;;;3.86;94.23
65872;BME280;52653;50.080;21.992;2023-02-19T03:36:41;98653.09;;;3.89;94.26
65872;BME280;52653;50.080;21.992;2023-02-19T03:39:34;98643.56;;;3.91;94.23
65872;BME280;52653;50.080;21.992;2023-02-19T03:42:37;98641.31;;;3.92;93.83
65872;BME280;52653;50.080;21.992;2023-02-19T03:45:32;98643.59;;;3.93;93.92
65872;BME280;52653;50.080;21.992;2023-02-19T03:48:29;98654.20;;;3.96;94.03
65872;BME280;52653;50.080;21.992;2023-02-19T03:51:29;98662.55;;;3.97;94.09
65872;BME280;52653;50.080;21.992;2023-02-19T03:54:16;98663.08;;;3.98;94.02
65872;BME280;52653;50.080;21.992;2023-02-19T03:56:58;98659.79;;;3.99;93.96
65872;BME280;52653;50.080;21.992;2023-02-19T03:59:52;98657.88;;;4.01;93.86
65872;BME280;52653;50.080;21.992;2023-02-19T04:02:46;98657.73;;;4.02;93.73
65872;BME280;52653;50.080;21.992;2023-02-19T04:05:40;98653.40;;;4.04;93.78
65872;BME280;52653;50.080;21.992;2023-02-19T04:08:35;98650.12;;;4.06;93.77
65872;BME280;52653;50.080;21.992;2023-02-19T04:11:28;98651.55;;;4.08;93.95
65872;BME280;52653;50.080;21.992;2023-02-19T04:14:16;98652.95;;;4.10;93.93
65872;BME280;52653;50.080;21.992;2023-02-19T04:17:12;98659.04;;;4.12;93.64
65872;BME280;52653;50.080;21.992;2023-02-19T04:20:08;98652.27;;;4.13;93.87
65872;BME280;52653;50.080;21.992;2023-02-19T04:23:00;98652.10;;;4.15;93.86
65872;BME280;52653;50.080;21.992;2023-02-19T04:25:45;98651.44;;;4.17;93.78
65872;BME280;52653;50.080;21.992;2023-02-19T04:28:39;98651.94;;;4.15;93.48
65872;BME280;52653;50.080;21.992;2023-02-19T04:31:31;98653.15;;;4.14;93.33
65872;BME280;52653;50.080;21.992;2023-02-19T04:34:25;98651.94;;;4.15;93.47
65872;BME280;52653;50.080;21.992;2023-02-19T04:37:16;98647.42;;;4.14;93.18
65872;BME280;52653;50.080;21.992;2023-02-19T04:39:58;98647.77;;;4.14;93.16
65872;BME280;52653;50.080;21.992;2023-02-19T04:42:49;98644.83;;;4.16;93.28
65872;BME280;52653;50.080;21.992;2023-02-19T04:45:40;98647.95;;;4.17;93.34
65872;BME280;52653;50.080;21.992;2023-02-19T04:48:32;98648.31;;;4.17;93.22
65872;BME280;52653;50.080;21.992;2023-02-19T04:51:23;98642.92;;;4.18;93.18
65872;BME280;52653;50.080;21.992;2023-02-19T04:54:14;98649.69;;;4.18;93.22
65872;BME280;52653;50.080;21.992;2023-02-19T04:57:05;98654.40;;;4.19;93.12
65872;BME280;52653;50.080;21.992;2023-02-19T04:59:56;98656.13;;;4.19;92.98
65872;BME280;52653;50.080;21.992;2023-02-19T05:02:48;98653.00;;;4.18;92.69
65872;BME280;52653;50.080;21.992;2023-02-19T05:05:32;98658.90;;;4.18;92.49
65872;BME280;52653;50.080;21.992;2023-02-19T05:08:24;98663.92;;;4.17;92.24
65872;BME280;52653;50.080;21.992;2023-02-19T05:11:16;98667.56;;;4.16;92.17
65872;BME280;52653;50.080;21.992;2023-02-19T05:14:07;98674.66;;;4.13;92.12
65872;BME280;52653;50.080;21.992;2023-02-19T05:16:59;98669.63;;;4.13;92.00
65872;BME280;52653;50.080;21.992;2023-02-19T05:19:50;98666.17;;;4.15;92.15
65872;BME280;52653;50.080;21.992;2023-02-19T05:22:42;98661.33;;;4.17;92.35
65872;BME280;52653;50.080;21.992;2023-02-19T05:25:33;98659.59;;;4.18;92.28
65872;BME280;52653;50.080;21.992;2023-02-19T05:28:24;98654.08;;;4.20;92.24
65872;BME280;52653;50.080;21.992;2023-02-19T05:31:18;98647.84;;;4.22;92.31
65872;BME280;52653;50.080;21.992;2023-02-19T05:34:11;98639.52;;;4.24;92.37
65872;BME280;52653;50.080;21.992;2023-02-19T05:37:03;98638.33;;;4.26;92.17
65872;BME280;52653;50.080;21.992;2023-02-19T05:39:54;98637.46;;;4.27;92.20
65872;BME280;52653;50.080;21.992;2023-02-19T05:42:47;98641.97;;;4.27;92.28
65872;BME280;52653;50.080;21.992;2023-02-19T05:45:39;98643.02;;;4.27;92.25
65872;BME280;52653;50.080;21.992;2023-02-19T05:48:31;98639.89;;;4.26;92.34
65872;BME280;52653;50.080;21.992;2023-02-19T05:51:23;98641.98;;;4.26;92.40
65872;BME280;52653;50.080;21.992;2023-02-19T05:54:15;98640.22;;;4.24;92.16
65872;BME280;52653;50.080;21.992;2023-02-19T05:57:06;98641.08;;;4.23;92.33
65872;BME280;52653;50.080;21.992;2023-02-19T05:59:57;98636.58;;;4.24;92.55
65872;BME280;52653;50.080;21.992;2023-02-19T06:02:48;98635.19;;;4.24;92.58
65872;BME280;52653;50.080;21.992;2023-02-19T06:05:39;98628.60;;;4.26;92.75
65872;BME280;52653;50.080;21.992;2023-02-19T06:08:31;98619.24;;;4.28;92.96
65872;BME280;52653;50.080;21.992;2023-02-19T06:11:23;98614.94;;;4.32;92.90
65872;BME280;52653;50.080;21.992;2023-02-19T06:14:14;98615.15;;;4.36;93.21
65872;BME280;52653;50.080;21.992;2023-02-19T06:17:06;98615.70;;;4.42;93.43
65872;BME280;52653;50.080;21.992;2023-02-19T06:19:57;98614.18;;;4.46;93.32
65872;BME280;52653;50.080;21.992;2023-02-19T06:22:50;98615.59;;;4.49;93.27
65872;BME280;52653;50.080;21.992;2023-02-19T06:25:41;98616.12;;;4.52;93.25
65872;BME280;52653;50.080;21.992;2023-02-19T06:28:33;98611.63;;;4.56;93.08
65872;BME280;52653;50.080;21.992;2023-02-19T06:31:26;98611.15;;;4.59;93.12
65872;BME280;52653;50.080;21.992;2023-02-19T06:34:19;98610.10;;;4.59;92.54
65872;BME280;52653;50.080;21.992;2023-02-19T06:36:53;98608.20;;;4.60;92.58
65872;BME280;52653;50.080;21.992;2023-02-19T06:39:46;98600.04;;;4.61;92.64
65872;BME280;52653;50.080;21.992;2023-02-19T06:42:39;98595.17;;;4.62;92.45
65872;BME280;52653;50.080;21.992;2023-02-19T06:45:30;98588.06;;;4.62;92.51
65872;BME280;52653;50.080;21.992;2023-02-19T06:48:21;98578.16;;;4.63;92.47
65872;BME280;52653;50.080;21.992;2023-02-19T06:51:14;98573.13;;;4.64;92.40
65872;BME280;52653;50.080;21.992;2023-02-19T06:54:08;98575.74;;;4.66;92.55
65872;BME280;52653;50.080;21.992;2023-02-19T06:57:00;98570.40;;;4.70;92.74
65872;BME280;52653;50.080;21.992;2023-02-19T06:59:52;98567.98;;;4.73;92.88
65872;BME280;52653;50.080;21.992;2023-02-19T07:02:45;98567.46;;;4.78;93.02
65872;BME280;52653;50.080;21.992;2023-02-19T07:05:36;98570.25;;;4.80;92.79
65872;BME280;52653;50.080;21.992;2023-02-19T07:08:27;98577.41;;;4.84;93.01
65872;BME280;52653;50.080;21.992;2023-02-19T07:11:19;98575.68;;;4.88;93.15
65872;BME280;52653;50.080;21.992;2023-02-19T07:14:12;98574.31;;;4.93;93.10
65872;BME280;52653;50.080;21.992;2023-02-19T07:17:04;98575.00;;;4.93;92.73
65872;BME280;52653;50.080;21.992;2023-02-19T07:19:55;98577.95;;;4.93;92.61
65872;BME280;52653;50.080;21.992;2023-02-19T07:22:46;98574.86;;;4.97;93.02
65872;BME280;52653;50.080;21.992;2023-02-19T07:25:38;98575.05;;;5.03;93.41
65872;BME280;52653;50.080;21.992;2023-02-19T07:28:29;98575.40;;;5.03;92.87
65872;BME280;52653;50.080;21.992;2023-02-19T07:31:13;98566.53;;;4.99;92.54
65872;BME280;52653;50.080;21.992;2023-02-19T07:34:05;98564.80;;;5.01;92.54
65872;BME280;52653;50.080;21.992;2023-02-19T07:36:57;98563.96;;;5.09;92.87
65872;BME280;52653;50.080;21.992;2023-02-19T07:39:49;98561.20;;;5.17;93.38
65872;BME280;52653;50.080;21.992;2023-02-19T07:42:41;98557.72;;;5.20;93.00
65872;BME280;52653;50.080;21.992;2023-02-19T07:45:33;98556.68;;;5.20;92.93
65872;BME280;52653;50.080;21.992;2023-02-19T07:48:25;98552.19;;;5.23;93.35
65872;BME280;52653;50.080;21.992;2023-02-19T07:51:17;98547.50;;;5.26;93.48
65872;BME280;52653;50.080;21.992;2023-02-19T07:54:09;98544.20;;;5.26;93.22
65872;BME280;52653;50.080;21.992;2023-02-19T07:57:01;98543.67;;;5.23;93.03
65872;BME280;52653;50.080;21.992;2023-02-19T07:59:52;98539.83;;;5.20;92.86
65872;BME280;52653;50.080;21.992;2023-02-19T08:02:43;98538.07;;;5.16;92.95
65872;BME280;52653;50.080;21.992;2023-02-19T08:05:48;98542.95;;;5.15;93.09
65872;BME280;52653;50.080;21.992;2023-02-19T08:08:42;98553.54;;;5.16;93.24
65872;BME280;52653;50.080;21.992;2023-02-19T08:11:26;98557.20;;;5.16;92.97
65872;BME280;52653;50.080;21.992;2023-02-19T08:14:46;98550.95;;;5.17;93.25
65872;BME280;52653;50.080;21.992;2023-02-19T08:17:37;98555.45;;;5.18;93.04
65872;BME280;52653;50.080;21.992;2023-02-19T08:20:29;98557.89;;;5.16;92.58
65872;BME280;52653;50.080;21.992;2023-02-19T08:23:20;98559.11;;;5.16;92.67
65872;BME280;52653;50.080;21.992;2023-02-19T08:26:12;98549.05;;;5.20;92.84
65872;BME280;52653;50.080;21.992;2023-02-19T08:29:03;98553.76;;;5.26;93.20
65872;BME280;52653;50.080;21.992;2023-02-19T08:31:54;98556.71;;;5.32;93.58
65872;BME280;52653;50.080;21.992;2023-02-19T08:34:46;98554.48;;;5.35;93.38
65872;BME280;52653;50.080;21.992;2023-02-19T08:37:37;98559.70;;;5.38;93.28
65872;BME280;52653;50.080;21.992;2023-02-19T08:40:28;98565.79;;;5.43;93.20
65872;BME280;52653;50.080;21.992;2023-02-19T08:43:20;98565.09;;;5.45;93.13
65872;BME280;52653;50.080;21.992;2023-02-19T08:46:11;98561.80;;;5.45;92.91
65872;BME280;52653;50.080;21.992;2023-02-19T08:49:04;98561.99;;;5.47;92.91
65872;BME280;52653;50.080;21.992;2023-02-19T08:51:55;98564.60;;;5.51;93.19
65872;BME280;52653;50.080;21.992;2023-02-19T08:54:47;98569.47;;;5.53;93.04
65872;BME280;52653;50.080;21.992;2023-02-19T08:57:38;98560.25;;;5.55;93.17
65872;BME280;52653;50.080;21.992;2023-02-19T09:00:30;98563.91;;;5.57;93.11
65872;BME280;52653;50.080;21.992;2023-02-19T09:03:24;98571.39;;;5.58;93.04
65872;BME280;52653;50.080;21.992;2023-02-19T09:06:09;98572.95;;;5.55;92.63
65872;BME280;52653;50.080;21.992;2023-02-19T09:09:03;98568.95;;;5.52;92.71
65872;BME280;52653;50.080;21.992;2023-02-19T09:11:54;98564.78;;;5.51;92.62
65872;BME280;52653;50.080;21.992;2023-02-19T09:14:45;98563.03;;;5.52;92.31
65872;BME280;52653;50.080;21.992;2023-02-19T09:17:37;98554.52;;;5.57;92.70
65872;BME280;52653;50.080;21.992;2023-02-19T09:20:28;98555.23;;;5.66;92.90
65872;BME280;52653;50.080;21.992;2023-02-19T09:23:21;98558.52;;;5.69;92.56
65872;BME280;52653;50.080;21.992;2023-02-19T09:26:12;98562.54;;;5.70;91.87
65872;BME280;52653;50.080;21.992;2023-02-19T09:29:03;98561.66;;;5.70;91.66
65872;BME280;52653;50.080;21.992;2023-02-19T09:31:56;98565.34;;;5.73;91.50
65872;BME280;52653;50.080;21.992;2023-02-19T09:34:48;98564.98;;;5.76;91.33
65872;BME280;52653;50.080;21.992;2023-02-19T09:37:39;98560.29;;;5.79;91.07
65872;BME280;52653;50.080;21.992;2023-02-19T09:40:30;98555.08;;;5.83;91.15
65872;BME280;52653;50.080;21.992;2023-02-19T09:43:25;98552.48;;;5.92;91.24
65872;BME280;52653;50.080;21.992;2023-02-19T09:46:22;98557.02;;;5.94;90.58
65872;BME280;52653;50.080;21.992;2023-02-19T09:49:17;98559.29;;;5.93;90.63
65872;BME280;52653;50.080;21.992;2023-02-19T09:52:11;98559.63;;;5.96;90.79
65872;BME280;52653;50.080;21.992;2023-02-19T09:55:08;98562.23;;;5.95;90.15
65872;BME280;52653;50.080;21.992;2023-02-19T09:58:20;98557.72;;;6.00;90.07
65872;BME280;52653;50.080;21.992;2023-02-19T10:01:11;98560.50;;;6.08;90.07
65872;BME280;52653;50.080;21.992;2023-02-19T10:04:03;98563.46;;;6.08;89.82
65872;BME280;52653;50.080;21.992;2023-02-19T10:06:54;98564.35;;;6.00;89.24
65872;BME280;52653;50.080;21.992;2023-02-19T10:09:52;98562.59;;;6.04;89.90
65872;BME280;52653;50.080;21.992;2023-02-19T10:12:47;98559.11;;;6.03;89.65
65872;BME280;52653;50.080;21.992;2023-02-19T10:15:37;98564.17;;;6.00;89.60
65872;BME280;52653;50.080;21.992;2023-02-19T10:18:32;98565.73;;;5.99;89.69
65872;BME280;52653;50.080;21.992;2023-02-19T10:21:27;98561.88;;;5.89;88.90
65872;BME280;52653;50.080;21.992;2023-02-19T10:24:20;98566.05;;;5.88;89.66
65872;BME280;52653;50.080;21.992;2023-02-19T10:27:14;98566.05;;;5.86;89.78
65872;BME280;52653;50.080;21.992;2023-02-19T10:30:08;98564.63;;;5.83;89.36
65872;BME280;52653;50.080;21.992;2023-02-19T10:33:19;98559.08;;;5.84;88.81
65872;BME280;52653;50.080;21.992;2023-02-19T10:36:14;98559.08;;;5.86;87.68
65872;BME280;52653;50.080;21.992;2023-02-19T10:39:28;98554.59;;;5.90;87.04
65872;BME280;52653;50.080;21.992;2023-02-19T10:42:23;98558.38;;;5.84;86.43
65872;BME280;52653;50.080;21.992;2023-02-19T10:45:17;98556.80;;;5.82;86.98
65872;BME280;52653;50.080;21.992;2023-02-19T10:48:19;98558.89;;;5.77;86.84
65872;BME280;52653;50.080;21.992;2023-02-19T10:51:13;98564.61;;;5.66;86.74
65872;BME280;52653;50.080;21.992;2023-02-19T10:54:25;98565.29;;;5.49;86.34
65872;BME280;52653;50.080;21.992;2023-02-19T10:57:28;98563.19;;;5.39;87.02
65872;BME280;52653;50.080;21.992;2023-02-19T11:00:22;98564.20;;;5.29;87.17
65872;BME280;52653;50.080;21.992;2023-02-19T11:03:19;98572.00;;;5.22;87.42
65872;BME280;52653;50.080;21.992;2023-02-19T11:06:09;98569.52;;;5.09;87.13
65872;BME280;52653;50.080;21.992;2023-02-19T11:09:01;98568.93;;;4.95;87.31
65872;BME280;52653;50.080;21.992;2023-02-19T11:11:51;98575.31;;;4.85;87.83
65872;BME280;52653;50.080;21.992;2023-02-19T11:14:43;98574.92;;;4.72;88.23
65872;BME280;52653;50.080;21.992;2023-02-19T11:17:35;98574.87;;;4.65;88.34
65872;BME280;52653;50.080;21.992;2023-02-19T11:20:19;98576.08;;;4.61;88.83
65872;BME280;52653;50.080;21.992;2023-02-19T11:23:12;98577.11;;;4.60;89.09
65872;BME280;52653;50.080;21.992;2023-02-19T11:26:05;98584.34;;;4.51;88.35
65872;BME280;52653;50.080;21.992;2023-02-19T11:28:57;98586.50;;;4.35;87.35
65872;BME280;52653;50.080;21.992;2023-02-19T11:31:49;98582.77;;;4.25;87.32
65872;BME280;52653;50.080;21.992;2023-02-19T11:34:41;98579.11;;;4.22;87.86
65872;BME280;52653;50.080;21.992;2023-02-19T11:37:33;98582.25;;;4.24;88.08
65872;BME280;52653;50.080;21.992;2023-02-19T11:40:17;98583.98;;;4.23;87.95
65872;BME280;52653;50.080;21.992;2023-02-19T11:43:00;98586.70;;;4.19;88.10
65872;BME280;52653;50.080;21.992;2023-02-19T11:45:50;98586.39;;;4.20;88.54
65872;BME280;52653;50.080;21.992;2023-02-19T11:48:49;98591.11;;;4.25;88.88
65872;BME280;52653;50.080;21.992;2023-02-19T11:51:47;98595.30;;;4.29;89.10
65872;BME280;52653;50.080;21.992;2023-02-19T11:54:48;98600.28;;;4.21;88.55
65872;BME280;52653;50.080;21.992;2023-02-19T11:57:42;98596.10;;;4.20;89.24
65872;BME280;52653;50.080;21.992;2023-02-19T12:00:38;98597.28;;;4.16;89.68
65872;BME280;52653;50.080;21.992;2023-02-19T12:03:36;98597.15;;;4.20;90.14
65872;BME280;52653;50.080;21.992;2023-02-19T12:06:34;98596.47;;;4.21;90.22
65872;BME280;52653;50.080;21.992;2023-02-19T12:09:35;98609.25;;;4.15;90.11
65872;BME280;52653;50.080;21.992;2023-02-19T12:12:39;98610.58;;;4.07;89.87
65872;BME280;52653;50.080;21.992;2023-02-19T12:18:49;98611.05;;;4.03;90.41
65872;BME280;52653;50.080;21.992;2023-02-19T12:21:48;98622.58;;;4.09;90.42
65872;BME280;52653;50.080;21.992;2023-02-19T12:28:12;98623.55;;;4.04;90.23
65872;BME280;52653;50.080;21.992;2023-02-19T12:31:11;98631.69;;;4.01;90.04
65872;BME280;52653;50.080;21.992;2023-02-19T12:34:13;98636.48;;;3.94;90.03
65872;BME280;52653;50.080;21.992;2023-02-19T12:37:10;98633.73;;;3.95;90.49
65872;BME280;52653;50.080;21.992;2023-02-19T12:40:13;98639.07;;;3.93;90.26
65872;BME280;52653;50.080;21.992;2023-02-19T12:43:11;98638.23;;;3.95;90.18
65872;BME280;52653;50.080;21.992;2023-02-19T12:46:04;98643.44;;;3.95;89.82
65872;BME280;52653;50.080;21.992;2023-02-19T12:48:51;98644.71;;;4.02;90.46
65872;BME280;52653;50.080;21.992;2023-02-19T12:51:45;98640.80;;;4.09;90.67
65872;BME280;52653;50.080;21.992;2023-02-19T12:54:39;98638.02;;;4.09;90.23
65872;BME280;52653;50.080;21.992;2023-02-19T12:57:32;98642.30;;;4.06;89.86
65872;BME280;52653;50.080;21.992;2023-02-19T13:00:29;98644.05;;;4.06;90.00
65872;BME280;52653;50.080;21.992;2023-02-19T13:03:15;98641.67;;;4.10;90.36
65872;BME280;52653;50.080;21.992;2023-02-19T13:06:10;98641.70;;;4.16;90.43
65872;BME280;52653;50.080;21.992;2023-02-19T13:09:08;98644.21;;;4.23;90.11
65872;BME280;52653;50.080;21.992;2023-02-19T13:12:03;98647.00;;;4.25;88.89
65872;BME280;52653;50.080;21.992;2023-02-19T13:14:59;98649.79;;;4.28;87.86
65872;BME280;52653;50.080;21.992;2023-02-19T13:17:51;98643.38;;;4.31;87.51
65872;BME280;52653;50.080;21.992;2023-02-19T13:20:45;98646.19;;;4.32;87.37
65872;BME280;52653;50.080;21.992;2023-02-19T13:23:27;98649.52;;;4.35;87.81
65872;BME280;52653;50.080;21.992;2023-02-19T13:26:57;98650.73;;;4.36;87.80
65872;BME280;52653;50.080;21.992;2023-02-19T13:29:54;98655.44;;;4.39;87.73
65872;BME280;52653;50.080;21.992;2023-02-19T13:32:57;98657.54;;;4.42;87.42
65872;BME280;52653;50.080;21.992;2023-02-19T13:36:13;98660.71;;;4.46;87.10
65872;BME280;52653;50.080;21.992;2023-02-19T13:39:06;98665.59;;;4.49;86.22
65872;BME280;52653;50.080;21.992;2023-02-19T13:41:58;98670.94;;;4.44;85.44
65872;BME280;52653;50.080;21.992;2023-02-19T13:44:49;98676.98;;;4.42;86.15
65872;BME280;52653;50.080;21.992;2023-02-19T13:47:48;98678.02;;;4.42;86.82
65872;BME280;52653;50.080;21.992;2023-02-19T13:54:23;98686.98;;;4.33;87.48
65872;BME280;52653;50.080;21.992;2023-02-19T13:57:27;98689.86;;;4.23;88.05
65872;BME280;52653;50.080;21.992;2023-02-19T14:00:48;98696.05;;;4.18;88.50
65872;BME280;52653;50.080;21.992;2023-02-19T14:03:43;98703.10;;;4.10;88.73
65872;BME280;52653;50.080;21.992;2023-02-19T14:06:40;98713.27;;;4.05;88.94
65872;BME280;52653;50.080;21.992;2023-02-19T14:09:51;98715.84;;;4.01;89.16
65872;BME280;52653;50.080;21.992;2023-02-19T14:12:42;98713.39;;;3.98;89.22
65872;BME280;52653;50.080;21.992;2023-02-19T14:15:42;98714.61;;;3.99;89.47
65872;BME280;52653;50.080;21.992;2023-02-19T14:18:43;98720.33;;;4.00;89.73
65872;BME280;52653;50.080;21.992;2023-02-19T14:21:34;98725.02;;;3.98;89.94
65872;BME280;52653;50.080;21.992;2023-02-19T14:24:26;98724.80;;;3.95;89.85
65872;BME280;52653;50.080;21.992;2023-02-19T14:27:17;98720.06;;;3.91;89.99
65872;BME280;52653;50.080;21.992;2023-02-19T14:30:09;98729.05;;;3.86;89.82
65872;BME280;52653;50.080;21.992;2023-02-19T14:33:02;98729.76;;;3.89;90.08
65872;BME280;52653;50.080;21.992;2023-02-19T14:36:00;98732.35;;;3.88;89.68
65872;BME280;52653;50.080;21.992;2023-02-19T14:38:55;98736.66;;;3.86;89.93
65872;BME280;52653;50.080;21.992;2023-02-19T14:41:47;98739.55;;;3.80;90.00
65872;BME280;52653;50.080;21.992;2023-02-19T14:44:43;98739.15;;;3.76;90.39
65872;BME280;52653;50.080;21.992;2023-02-19T14:47:39;98739.95;;;3.69;90.34
65872;BME280;52653;50.080;21.992;2023-02-19T14:50:33;98741.96;;;3.65;90.24
65872;BME280;52653;50.080;21.992;2023-02-19T14:53:24;98740.23;;;3.64;90.63
65872;BME280;52653;50.080;21.992;2023-02-19T14:56:19;98743.66;;;3.61;90.82
65872;BME280;52653;50.080;21.992;2023-02-19T14:59:23;98749.70;;;3.58;90.85
65872;BME280;52653;50.080;21.992;2023-02-19T15:02:15;98747.56;;;3.55;91.04
65872;BME280;52653;50.080;21.992;2023-02-19T15:05:15;98758.63;;;3.53;91.11
65872;BME280;52653;50.080;21.992;2023-02-19T15:08:08;98755.14;;;3.51;91.24
65872;BME280;52653;50.080;21.992;2023-02-19T15:11:02;98763.58;;;3.45;91.27
65872;BME280;52653;50.080;21.992;2023-02-19T15:13:47;98774.91;;;3.38;91.28
65872;BME280;52653;50.080;21.992;2023-02-19T15:16:32;98776.48;;;3.27;91.34
65872;BME280;52653;50.080;21.992;2023-02-19T15:19:26;98789.52;;;3.17;91.45
65872;BME280;52653;50.080;21.992;2023-02-19T15:22:18;98794.91;;;3.08;91.67
65872;BME280;52653;50.080;21.992;2023-02-19T15:25:11;98797.67;;;2.96;91.86
65872;BME280;52653;50.080;21.992;2023-02-19T15:28:03;98795.39;;;2.83;91.91
65872;BME280;52653;50.080;21.992;2023-02-19T15:31:04;98805.66;;;2.76;92.74
65872;BME280;52653;50.080;21.992;2023-02-19T15:33:56;98815.67;;;2.74;93.33